createdAt,value
2023-01-12T00:03:29.560Z,0.0
2023-01-12T00:08:30.498Z,0.0
2023-01-12T00:13:36.445Z,0.0
2023-01-12T00:18:37.585Z,0.0
2023-01-12T00:23:38.865Z,0.0
2023-01-12T00:28:39.850Z,0.0
2023-01-12T00:33:40.809Z,0.0
2023-01-12T00:38:41.755Z,0.0
2023-01-12T00:43:42.778Z,0.0
2023-01-12T00:48:43.741Z,0.0
2023-01-12T00:53:44.680Z,0.0
2023-01-12T00:58:45.650Z,0.0
2023-01-12T01:03:46.601Z,0.0
2023-01-12T01:08:47.516Z,0.0
2023-01-12T01:13:48.461Z,0.0
2023-01-12T01:18:49.497Z,0.0
2023-01-12T01:23:50.416Z,0.0
2023-01-12T01:28:51.341Z,0.0
2023-01-12T01:33:52.292Z,0.0
2023-01-12T01:38:53.283Z,0.0
2023-01-12T01:43:54.215Z,0.0
2023-01-12T01:48:55.145Z,0.0
2023-01-12T01:53:56.082Z,0.0
2023-01-12T01:58:57.013Z,0.0
2023-01-12T02:03:58.031Z,0.0
2023-01-12T02:08:58.969Z,0.0
2023-01-12T02:13:59.906Z,0.0
2023-01-12T02:19:00.833Z,0.0
2023-01-12T02:24:01.929Z,0.0
2023-01-12T02:29:02.847Z,0.0
2023-01-12T02:34:03.820Z,0.0
2023-01-12T02:39:04.809Z,0.0
2023-01-12T02:44:05.753Z,0.0
2023-01-12T02:49:06.678Z,0.0
2023-01-12T02:54:07.670Z,0.0
2023-01-12T02:59:08.562Z,1.16185
2023-01-12T03:04:09.494Z,1.16185
2023-01-12T03:09:10.413Z,0.0
2023-01-12T03:14:11.335Z,1.16185
2023-01-12T03:19:12.262Z,0.0
2023-01-12T03:24:13.178Z,0.0
2023-01-12T03:29:14.119Z,0.0
2023-01-12T03:34:15.059Z,0.0
2023-01-12T03:39:15.957Z,0.0
2023-01-12T03:44:16.901Z,0.0
2023-01-12T03:49:17.855Z,0.0
2023-01-12T03:54:18.780Z,0.0
2023-01-12T03:59:19.701Z,0.0
2023-01-12T04:04:20.638Z,0.0
2023-01-12T04:09:21.542Z,0.0
2023-01-12T04:14:22.483Z,0.0
2023-01-12T04:19:23.458Z,0.0
2023-01-12T04:24:24.400Z,0.0
2023-01-12T04:29:25.345Z,0.0
2023-01-12T04:34:26.263Z,0.0
2023-01-12T04:39:27.206Z,0.0
2023-01-12T04:44:28.174Z,0.0
2023-01-12T04:49:29.142Z,0.0
2023-01-12T04:54:30.031Z,0.0
2023-01-12T04:59:31.121Z,0.0
2023-01-12T05:04:32.113Z,0.0
2023-01-12T05:09:33.058Z,0.0
2023-01-12T05:14:33.978Z,0.0
2023-01-12T05:19:34.935Z,0.0
2023-01-12T05:24:35.888Z,0.0
2023-01-12T05:29:36.814Z,0.0
2023-01-12T05:34:37.989Z,0.0
2023-01-12T05:39:39.296Z,0.0
2023-01-12T05:44:40.249Z,0.0
2023-01-12T05:49:41.142Z,0.0
2023-01-12T05:54:42.072Z,0.0
2023-01-12T05:59:42.991Z,0.0
2023-01-12T06:04:44.017Z,0.0
2023-01-12T06:09:44.926Z,0.0
2023-01-12T06:14:45.873Z,0.0
2023-01-12T06:19:46.830Z,0.0
2023-01-12T06:24:47.772Z,0.0
2023-01-12T06:29:48.684Z,0.0
2023-01-12T06:34:49.615Z,0.4148
2023-01-12T06:39:50.542Z,0.47405
2023-01-12T06:44:51.479Z,2.50815
2023-01-12T06:49:52.420Z,6.9711
2023-01-12T06:54:53.587Z,2.1925
2023-01-12T06:59:54.646Z,7.89335
2023-01-12T07:04:55.600Z,8.11825
2023-01-12T07:09:56.497Z,17.7605
2023-01-12T07:14:57.436Z,34.5056
2023-01-12T07:19:58.431Z,49.00115
2023-01-12T07:24:59.444Z,58.72
2023-01-12T07:30:00.361Z,81.77255
2023-01-12T07:35:01.340Z,120.81525
2023-01-12T07:40:02.357Z,182.74505
2023-01-12T07:45:03.315Z,225.6612
2023-01-12T07:50:04.245Z,333.2929
2023-01-12T07:55:05.174Z,277.1895
2023-01-12T08:00:06.068Z,210.62945
2023-01-12T08:05:06.996Z,271.15595
2023-01-12T08:10:07.892Z,273.2762
2023-01-12T08:15:08.797Z,339.2069
2023-01-12T08:20:09.751Z,285.81695
2023-01-12T08:25:10.668Z,237.1847
2023-01-12T08:30:11.575Z,281.7039
2023-01-12T08:35:12.578Z,336.0351
2023-01-12T08:40:13.517Z,370.48555
2023-01-12T08:45:14.434Z,434.0374
2023-01-12T08:50:15.343Z,491.9093
2023-01-12T08:55:16.289Z,635.83225
2023-01-12T09:00:17.196Z,524.10835
2023-01-12T09:05:18.108Z,565.8988
2023-01-12T09:10:19.001Z,498.30805
2023-01-12T09:15:19.922Z,548.47105
2023-01-12T09:20:20.905Z,451.0411
2023-01-12T09:25:21.853Z,454.74725
2023-01-12T09:30:22.876Z,447.8313
2023-01-12T09:35:23.837Z,615.9325
2023-01-12T09:40:24.792Z,796.66575
2023-01-12T09:45:25.784Z,1782.01325
2023-01-12T09:50:26.923Z,1409.99695
2023-01-12T09:55:27.895Z,1140.24245
2023-01-12T10:00:28.811Z,2955.7116
2023-01-12T10:05:38.924Z,1468.7341
2023-01-12T10:10:40.335Z,831.9073
2023-01-12T10:15:41.248Z,845.3893
2023-01-12T10:20:47.232Z,1396.3875
2023-01-12T10:25:48.165Z,1597.0928
2023-01-12T10:30:49.111Z,881.77555
2023-01-12T10:35:50.066Z,773.077
2023-01-12T10:40:50.980Z,739.62295
2023-01-12T10:45:52.003Z,898.85155
2023-01-12T10:50:52.985Z,649.495
2023-01-12T10:55:53.925Z,505.97895
2023-01-12T11:00:54.983Z,548.32275
2023-01-12T11:05:56.004Z,557.74685
2023-01-12T11:10:56.941Z,623.1242
2023-01-12T11:15:57.881Z,664.1217
2023-01-12T11:20:58.843Z,471.38205
2023-01-12T11:25:59.764Z,395.28945
2023-01-12T11:31:00.800Z,386.10495
2023-01-12T11:36:01.932Z,329.045
2023-01-12T11:41:02.863Z,355.7124
2023-01-12T11:46:03.875Z,329.22945
2023-01-12T11:51:04.835Z,271.542
2023-01-12T11:56:05.793Z,538.67805
2023-01-12T12:01:06.800Z,743.9756
2023-01-12T12:06:07.817Z,595.2018
2023-01-12T12:11:08.787Z,460.0203
2023-01-12T12:16:09.807Z,568.5344
2023-01-12T12:21:10.886Z,589.3184
2023-01-12T12:26:11.857Z,715.593
2023-01-12T12:31:13.079Z,428.77965
2023-01-12T12:36:14.139Z,341.272
2023-01-12T12:41:15.083Z,493.86225
2023-01-12T12:46:16.108Z,421.3845
2023-01-12T12:51:17.141Z,328.4365
2023-01-12T12:56:18.105Z,290.0023
2023-01-12T13:01:19.075Z,280.80065
2023-01-12T13:06:20.226Z,342.93205
2023-01-12T13:11:21.181Z,292.2157
2023-01-12T13:16:22.198Z,305.9183
2023-01-12T13:21:23.239Z,261.749
2023-01-12T13:26:24.170Z,272.8883
2023-01-12T13:31:25.172Z,250.31495
2023-01-12T13:36:26.090Z,246.2019
2023-01-12T13:41:26.999Z,223.51825
2023-01-12T13:46:27.997Z,242.5699
2023-01-12T13:51:28.966Z,253.4506
2023-01-12T13:56:29.962Z,176.0117
2023-01-12T14:01:31.032Z,158.08575
2023-01-12T14:06:32.001Z,157.5134
2023-01-12T14:11:33.065Z,154.39675
2023-01-12T14:16:34.104Z,159.9474
2023-01-12T14:21:35.146Z,113.91645
2023-01-12T14:26:36.150Z,108.7157
2023-01-12T14:31:37.186Z,137.3379
2023-01-12T14:36:38.379Z,101.8739
2023-01-12T14:41:39.613Z,132.3216
2023-01-12T14:46:40.626Z,106.46615
2023-01-12T14:51:41.761Z,82.62065
2023-01-12T14:56:42.685Z,77.7888
2023-01-12T15:01:43.849Z,76.6821
2023-01-12T15:06:44.917Z,68.78875
2023-01-12T15:11:45.847Z,54.84655
2023-01-12T15:16:46.788Z,37.4188
2023-01-12T15:21:47.828Z,18.40515
2023-01-12T15:26:55.857Z,10.6411
2023-01-12T15:32:03.008Z,6.9711
2023-01-12T15:37:04.117Z,3.48555
2023-01-12T15:42:05.047Z,1.16185
2023-01-12T15:47:05.988Z,0.4148
2023-01-12T15:52:06.947Z,0.0
2023-01-12T15:57:07.884Z,0.0
2023-01-12T16:02:08.974Z,0.0
2023-01-12T16:07:09.985Z,0.0
2023-01-12T16:12:10.951Z,0.0
2023-01-12T16:17:11.929Z,0.0
2023-01-12T16:22:12.891Z,0.0
2023-01-12T16:27:14.012Z,0.0
2023-01-12T16:32:15.148Z,0.0
2023-01-12T16:37:16.170Z,0.0
2023-01-12T16:42:17.169Z,0.0
2023-01-12T16:47:18.150Z,0.0
2023-01-12T16:52:19.076Z,0.0
2023-01-12T16:57:19.990Z,0.0
2023-01-12T17:02:21.208Z,0.0
2023-01-12T17:07:22.579Z,0.0
2023-01-12T17:12:24.365Z,0.0
2023-01-12T17:17:25.547Z,0.0
2023-01-12T17:22:26.590Z,0.0
2023-01-12T17:27:27.651Z,0.0
2023-01-12T17:32:28.631Z,0.0
2023-01-12T17:37:29.740Z,0.0
2023-01-12T17:42:30.738Z,0.0
2023-01-12T17:47:31.681Z,0.0
2023-01-12T17:52:32.643Z,0.0
2023-01-12T17:57:33.641Z,0.0
2023-01-12T18:02:34.681Z,0.0
2023-01-12T18:07:36.118Z,0.0
2023-01-12T18:12:37.004Z,0.0
2023-01-12T18:17:37.953Z,0.0
2023-01-12T18:22:39.263Z,0.0
2023-01-12T18:27:40.504Z,0.0
2023-01-12T18:32:41.470Z,0.0
2023-01-12T18:37:42.742Z,0.0
2023-01-12T18:42:43.741Z,0.0
2023-01-12T18:47:44.680Z,0.0
2023-01-12T18:52:46.152Z,0.0
2023-01-12T18:57:47.260Z,0.0
2023-01-12T19:02:48.283Z,0.0
2023-01-12T19:07:49.268Z,0.0
2023-01-12T19:12:50.204Z,0.0
2023-01-12T19:17:51.176Z,0.0
2023-01-12T19:22:52.147Z,0.0
2023-01-12T19:27:53.089Z,0.0
2023-01-12T19:32:54.011Z,0.0
2023-01-12T19:37:55.086Z,0.0
2023-01-12T19:42:56.024Z,0.0
2023-01-12T19:47:56.959Z,0.0
2023-01-12T19:52:57.860Z,0.0
2023-01-12T19:57:58.853Z,0.0
2023-01-12T20:02:59.830Z,0.0
2023-01-12T20:08:00.787Z,0.0
2023-01-12T20:13:01.889Z,0.0
2023-01-12T20:18:02.836Z,0.0
2023-01-12T20:23:03.857Z,1.16185
2023-01-12T20:28:04.784Z,1.16185
2023-01-12T20:33:05.773Z,1.16185
2023-01-12T20:38:07.040Z,1.16185
2023-01-12T20:43:08.070Z,1.16185
2023-01-12T20:48:09.176Z,1.16185
2023-01-12T20:53:10.577Z,1.16185
2023-01-12T20:58:11.581Z,1.16185
2023-01-12T21:03:12.611Z,1.16185
2023-01-12T21:08:13.582Z,0.0
2023-01-12T21:13:14.468Z,1.16185
2023-01-12T21:18:15.430Z,1.16185
2023-01-12T21:23:16.483Z,1.16185
2023-01-12T21:28:17.415Z,1.16185
2023-01-12T21:33:18.344Z,1.16185
2023-01-12T21:38:19.299Z,1.16185
2023-01-12T21:43:20.222Z,1.16185
2023-01-12T21:48:21.162Z,1.16185
2023-01-12T21:53:22.142Z,1.16185
2023-01-12T21:58:23.075Z,1.16185
2023-01-12T22:03:23.991Z,1.16185
2023-01-12T22:08:25.230Z,0.0
2023-01-12T22:13:26.283Z,1.16185
2023-01-12T22:18:27.252Z,1.16185
2023-01-12T22:23:28.233Z,1.16185
2023-01-12T22:28:29.296Z,1.16185
2023-01-12T22:33:30.338Z,1.16185
2023-01-12T22:38:31.328Z,1.16185
2023-01-12T22:43:32.267Z,1.16185
2023-01-12T22:48:33.221Z,1.16185
2023-01-12T22:53:34.156Z,1.16185
2023-01-12T22:58:35.091Z,1.16185
2023-01-12T23:03:36.224Z,1.16185
2023-01-12T23:08:37.223Z,1.16185
2023-01-12T23:13:38.237Z,1.16185
2023-01-12T23:18:39.452Z,1.16185
2023-01-12T23:23:40.738Z,1.16185
2023-01-12T23:28:41.704Z,1.16185
2023-01-12T23:33:42.719Z,1.16185
2023-01-12T23:38:43.703Z,1.16185
2023-01-12T23:43:44.670Z,1.16185
2023-01-12T23:48:45.635Z,1.16185
2023-01-12T23:53:46.633Z,0.0
2023-01-12T23:58:47.585Z,0.0
